createdAt,value
2023-04-07T00:03:32.213Z,4.70
2023-04-07T00:08:33.997Z,4.70
2023-04-07T00:13:35.712Z,4.70
2023-04-07T00:18:37.433Z,4.60
2023-04-07T00:23:39.127Z,4.50
2023-04-07T00:28:40.869Z,4.40
2023-04-07T00:33:42.575Z,4.40
2023-04-07T00:38:44.383Z,4.40
2023-04-07T00:43:46.202Z,4.30
2023-04-07T00:48:47.963Z,4.30
2023-04-07T00:53:50.210Z,4.20
2023-04-07T00:58:52.048Z,4.20
2023-04-07T01:04:01.498Z,4.10
2023-04-07T01:09:11.376Z,4.10
2023-04-07T01:14:15.823Z,4.10
2023-04-07T01:19:32.514Z,4.00
2023-04-07T01:25:10.025Z,4.10
2023-04-07T01:30:13.346Z,4.00
2023-04-07T01:35:16.504Z,4.00
2023-04-07T01:40:19.023Z,3.90
2023-04-07T01:45:21.661Z,3.90
2023-04-07T01:50:25.016Z,3.90
2023-04-07T01:55:26.787Z,3.80
2023-04-07T02:00:28.522Z,3.80
2023-04-07T02:05:31.696Z,3.80
2023-04-07T02:10:35.495Z,3.70
2023-04-07T02:15:38.047Z,3.70
2023-04-07T02:20:41.229Z,3.60
2023-04-07T02:25:42.985Z,3.60
2023-04-07T02:30:44.682Z,3.50
2023-04-07T02:35:46.505Z,3.50
2023-04-07T02:40:48.178Z,3.50
2023-04-07T02:45:49.879Z,3.50
2023-04-07T02:50:51.620Z,3.50
2023-04-07T02:55:53.369Z,3.50
2023-04-07T03:00:55.184Z,3.50
2023-04-07T03:05:57.445Z,3.40
2023-04-07T03:10:59.231Z,3.40
2023-04-07T03:16:00.924Z,3.40
2023-04-07T03:21:03.080Z,3.40
2023-04-07T03:26:05.266Z,3.40
2023-04-07T03:31:07.146Z,3.50
2023-04-07T03:36:08.950Z,3.50
2023-04-07T03:41:10.769Z,3.50
2023-04-07T03:46:12.589Z,3.40
2023-04-07T03:51:14.390Z,3.40
2023-04-07T03:56:16.156Z,3.30
2023-04-07T04:01:18.021Z,3.20
2023-04-07T04:06:19.801Z,3.20
2023-04-07T04:11:22.117Z,3.10
2023-04-07T04:16:23.923Z,3.10
2023-04-07T04:21:27.244Z,3.10
2023-04-07T04:26:29.819Z,3.10
2023-04-07T04:31:31.619Z,3.00
2023-04-07T04:36:33.490Z,3.00
2023-04-07T04:41:35.393Z,2.90
2023-04-07T04:46:37.065Z,2.90
2023-04-07T04:51:38.832Z,2.90
2023-04-07T04:56:40.707Z,2.90
2023-04-07T05:01:42.541Z,2.80
2023-04-07T05:06:44.562Z,2.80
2023-04-07T05:11:46.671Z,2.80
2023-04-07T05:16:48.544Z,2.80
2023-04-07T05:21:50.420Z,2.80
2023-04-07T05:26:52.098Z,2.90
2023-04-07T05:31:53.852Z,3.00
2023-04-07T05:36:55.589Z,3.00
2023-04-07T05:41:58.128Z,3.10
2023-04-07T05:46:59.870Z,3.20
2023-04-07T05:52:03.378Z,3.20
2023-04-07T05:57:05.237Z,3.10
2023-04-07T06:02:07.841Z,3.20
2023-04-07T06:07:09.555Z,3.20
2023-04-07T06:12:12.353Z,3.20
2023-04-07T06:17:14.079Z,3.20
2023-04-07T06:22:15.965Z,3.20
2023-04-07T06:27:18.404Z,3.30
2023-04-07T06:32:20.338Z,3.40
2023-04-07T06:37:24.512Z,3.50
2023-04-07T06:42:26.371Z,3.60
2023-04-07T06:47:28.384Z,3.70
2023-04-07T06:52:30.394Z,3.90
2023-04-07T06:57:32.076Z,4.00
2023-04-07T07:02:34.166Z,4.10
2023-04-07T07:07:36.013Z,4.30
2023-04-07T07:12:37.829Z,4.40
2023-04-07T07:17:39.562Z,4.60
2023-04-07T07:22:41.587Z,4.80
2023-04-07T07:27:43.338Z,5.00
2023-04-07T07:32:45.306Z,5.20
2023-04-07T07:37:47.651Z,5.60
2023-04-07T07:42:49.368Z,5.80
2023-04-07T07:47:51.193Z,6.00
2023-04-07T07:52:52.937Z,6.30
2023-04-07T07:57:54.681Z,6.40
2023-04-07T08:02:56.591Z,6.80
2023-04-07T08:07:58.512Z,6.80
2023-04-07T08:13:00.294Z,7.00
2023-04-07T08:18:04.477Z,7.30
2023-04-07T08:23:06.382Z,7.70
2023-04-07T08:28:08.357Z,8.00
2023-04-07T08:33:10.168Z,8.40
2023-04-07T08:38:11.834Z,8.60
2023-04-07T08:43:16.261Z,8.90
2023-04-07T08:48:18.815Z,9.30
2023-04-07T08:53:29.526Z,9.60
2023-04-07T08:58:31.232Z,9.70
2023-04-07T09:03:34.539Z,9.80
2023-04-07T09:08:36.384Z,9.90
2023-04-07T09:13:38.134Z,9.90
2023-04-07T09:18:39.873Z,10.30
2023-04-07T09:23:43.064Z,10.70
2023-04-07T09:28:46.704Z,10.60
2023-04-07T09:33:50.082Z,10.70
2023-04-07T09:38:52.490Z,11.20
2023-04-07T09:43:57.889Z,11.30
2023-04-07T09:49:06.370Z,11.30
2023-04-07T09:54:08.544Z,11.50
2023-04-07T09:59:11.091Z,11.20
2023-04-07T10:04:13.176Z,11.10
2023-04-07T10:09:14.874Z,11.10
2023-04-07T10:14:17.943Z,11.10
2023-04-07T10:19:20.787Z,11.60
2023-04-07T10:24:54.576Z,11.70
2023-04-07T10:29:59.958Z,11.70
2023-04-07T10:35:01.742Z,12.20
2023-04-07T10:40:22.125Z,11.90
2023-04-07T10:45:59.407Z,12.30
2023-04-07T10:51:08.382Z,12.10
2023-04-07T10:56:10.278Z,11.80
2023-04-07T11:01:15.245Z,11.90
2023-04-07T11:06:17.007Z,12.00
2023-04-07T11:11:39.826Z,12.00
2023-04-07T11:16:43.824Z,11.70
2023-04-07T11:21:46.132Z,11.90
2023-04-07T11:26:49.452Z,12.10
2023-04-07T11:31:52.314Z,11.90
2023-04-07T11:36:54.416Z,11.90
2023-04-07T11:41:56.219Z,12.00
2023-04-07T11:47:03.680Z,12.20
2023-04-07T11:52:07.249Z,12.70
2023-04-07T11:57:12.351Z,12.40
2023-04-07T12:02:32.220Z,12.60
2023-04-07T12:07:34.013Z,12.60
2023-04-07T12:12:35.734Z,14.10
2023-04-07T12:17:37.440Z,13.50
2023-04-07T12:22:39.202Z,13.70
2023-04-07T12:27:43.727Z,13.60
2023-04-07T12:32:45.797Z,13.90
2023-04-07T12:37:49.604Z,13.60
2023-04-07T12:42:52.107Z,13.20
2023-04-07T12:47:53.876Z,13.40
2023-04-07T12:52:55.796Z,13.30
2023-04-07T12:57:57.466Z,12.90
2023-04-07T13:02:59.270Z,13.10
2023-04-07T13:08:01.106Z,13.50
2023-04-07T13:13:02.853Z,13.10
2023-04-07T13:18:04.663Z,13.40
2023-04-07T13:23:09.714Z,13.70
2023-04-07T13:28:12.259Z,13.10
2023-04-07T13:33:14.062Z,13.50
2023-04-07T13:38:15.890Z,13.60
2023-04-07T13:43:18.973Z,13.00
2023-04-07T13:48:20.753Z,13.30
2023-04-07T13:53:23.027Z,13.60
2023-04-07T13:58:25.600Z,14.20
2023-04-07T14:03:28.168Z,14.40
2023-04-07T14:08:29.882Z,14.30
2023-04-07T14:13:31.666Z,14.40
2023-04-07T14:18:33.334Z,14.40
2023-04-07T14:23:37.605Z,13.80
2023-04-07T14:28:52.681Z,14.10
2023-04-07T14:33:55.351Z,14.10
2023-04-07T14:38:58.247Z,13.80
2023-04-07T14:43:59.907Z,14.20
2023-04-07T14:49:01.557Z,14.20
2023-04-07T14:54:03.384Z,14.30
2023-04-07T14:59:05.140Z,14.00
2023-04-07T15:04:06.899Z,14.30
2023-04-07T15:09:09.208Z,14.20
2023-04-07T15:14:10.877Z,14.40
2023-04-07T15:19:12.548Z,14.20
2023-04-07T15:24:16.092Z,13.80
2023-04-07T15:29:18.297Z,14.40
2023-04-07T15:34:19.986Z,14.80
2023-04-07T15:39:21.694Z,14.60
2023-04-07T15:44:23.437Z,14.70
2023-04-07T15:49:26.218Z,15.20
2023-04-07T15:54:28.116Z,14.60
2023-04-07T15:59:31.184Z,14.80
2023-04-07T16:04:33.086Z,15.50
2023-04-07T16:09:34.792Z,14.90
2023-04-07T16:14:36.567Z,15.00
2023-04-07T16:19:38.275Z,14.60
2023-04-07T16:24:39.995Z,14.10
2023-04-07T16:29:41.709Z,13.90
2023-04-07T16:34:43.422Z,13.50
2023-04-07T16:39:45.100Z,13.20
2023-04-07T16:44:46.838Z,12.80
2023-04-07T16:49:48.499Z,12.30
2023-04-07T16:54:50.820Z,11.90
2023-04-07T16:59:52.732Z,11.80
2023-04-07T17:04:54.576Z,11.70
2023-04-07T17:09:56.263Z,11.50
2023-04-07T17:14:57.976Z,11.50
2023-04-07T17:19:59.766Z,11.30
2023-04-07T17:25:01.626Z,11.20
2023-04-07T17:30:04.902Z,10.80
2023-04-07T17:35:07.129Z,10.80
2023-04-07T17:40:09.270Z,10.40
2023-04-07T17:45:11.684Z,10.40
2023-04-07T17:50:13.587Z,10.30
2023-04-07T17:55:15.315Z,10.20
2023-04-07T18:00:17.339Z,10.00
2023-04-07T18:05:19.891Z,9.90
2023-04-07T18:10:21.827Z,9.40
2023-04-07T18:15:23.569Z,9.40
2023-04-07T18:20:25.851Z,9.40
2023-04-07T18:25:27.938Z,9.40
2023-04-07T18:30:29.908Z,9.40
2023-04-07T18:35:32.995Z,9.20
2023-04-07T18:40:35.426Z,9.00
2023-04-07T18:45:37.170Z,9.00
2023-04-07T18:50:38.843Z,9.00
2023-04-07T18:55:40.732Z,8.90
2023-04-07T19:00:43.267Z,8.80
2023-04-07T19:05:47.625Z,8.90
2023-04-07T19:10:52.828Z,8.80
2023-04-07T19:15:55.806Z,8.60
2023-04-07T19:20:57.652Z,8.50
2023-04-07T19:26:01.001Z,8.60
2023-04-07T19:31:04.523Z,8.50
2023-04-07T19:36:06.458Z,8.30
2023-04-07T19:41:08.512Z,8.20
2023-04-07T19:46:11.856Z,8.20
2023-04-07T19:51:13.682Z,8.00
2023-04-07T19:56:15.530Z,8.20
2023-04-07T20:01:18.209Z,8.00
2023-04-07T20:06:24.632Z,7.80
2023-04-07T20:11:26.418Z,7.70
2023-04-07T20:16:32.032Z,7.70
2023-04-07T20:21:33.936Z,7.60
2023-04-07T20:26:35.876Z,7.70
2023-04-07T20:31:37.959Z,7.50
2023-04-07T20:36:39.639Z,7.40
2023-04-07T20:41:42.896Z,7.20
2023-04-07T20:46:46.337Z,7.30
2023-04-07T20:51:48.124Z,7.40
2023-04-07T20:56:50.093Z,7.40
2023-04-07T21:01:51.932Z,7.20
2023-04-07T21:06:53.734Z,7.20
2023-04-07T21:11:55.588Z,7.30
2023-04-07T21:16:57.629Z,7.30
2023-04-07T21:22:00.928Z,7.30
2023-04-07T21:27:02.626Z,7.30
2023-04-07T21:32:05.456Z,7.40
2023-04-07T21:37:07.954Z,7.30
2023-04-07T21:42:09.700Z,7.10
2023-04-07T21:47:11.376Z,7.30
2023-04-07T21:52:13.082Z,7.30
2023-04-07T21:57:14.803Z,7.20
2023-04-07T22:02:16.732Z,7.30
2023-04-07T22:07:18.476Z,7.40
2023-04-07T22:12:20.242Z,7.30
2023-04-07T22:17:21.968Z,7.20
2023-04-07T22:22:23.639Z,7.20
2023-04-07T22:27:26.141Z,7.10
2023-04-07T22:32:27.830Z,7.00
2023-04-07T22:37:29.541Z,7.00
2023-04-07T22:42:31.266Z,7.00
2023-04-07T22:47:33.017Z,7.10
2023-04-07T22:52:34.794Z,6.90
2023-04-07T22:57:36.472Z,7.00
2023-04-07T23:02:38.752Z,7.20
2023-04-07T23:07:40.903Z,6.90
2023-04-07T23:12:42.649Z,6.80
2023-04-07T23:17:44.453Z,6.90
2023-04-07T23:22:46.198Z,7.00
2023-04-07T23:27:47.961Z,6.90
2023-04-07T23:32:49.837Z,7.00
2023-04-07T23:37:51.551Z,6.90
2023-04-07T23:42:53.226Z,7.00
2023-04-07T23:47:54.997Z,6.80
2023-04-07T23:52:57.328Z,6.80
2023-04-07T23:57:59.012Z,6.70
